createdAt,value
2018-08-22T00:00:34.945Z,101270.09
2018-08-22T00:03:00.933Z,101272.91
2018-08-22T00:05:26.909Z,101273.87
2018-08-22T00:07:52.871Z,101275.56
2018-08-22T00:10:18.831Z,101271.39
2018-08-22T00:12:44.812Z,101273.06
2018-08-22T00:15:10.775Z,101269.89
2018-08-22T00:17:36.777Z,101270.91
2018-08-22T00:20:02.740Z,101268.91
2018-08-22T00:22:28.745Z,101272.55
2018-08-22T00:24:54.757Z,101267.41
2018-08-22T00:27:20.720Z,101264.58
2018-08-22T00:29:46.686Z,101261.58
2018-08-22T00:32:12.671Z,101258.75
2018-08-22T00:34:38.642Z,101263.60
2018-08-22T00:37:04.622Z,101269.73
2018-08-22T00:39:30.609Z,101264.25
2018-08-22T00:41:56.574Z,101258.61
2018-08-22T00:44:22.550Z,101256.77
2018-08-22T00:46:48.514Z,101255.93
2018-08-22T00:49:14.515Z,101248.14
2018-08-22T00:51:40.465Z,101250.78
2018-08-22T00:54:06.439Z,101250.45
2018-08-22T00:56:32.392Z,101251.27
2018-08-22T00:58:58.339Z,101240.47
2018-08-22T01:01:24.308Z,101244.63
2018-08-22T01:03:50.269Z,101239.80
2018-08-22T01:06:16.232Z,101238.64
2018-08-22T01:08:42.195Z,101234.64
2018-08-22T01:11:08.156Z,101230.99
2018-08-22T01:13:34.164Z,101230.34
2018-08-22T01:16:00.237Z,101227.00
2018-08-22T01:18:26.205Z,101226.84
2018-08-22T01:20:52.152Z,101226.02
2018-08-22T01:23:18.119Z,101221.03
2018-08-22T01:25:44.082Z,101224.34
2018-08-22T01:28:10.056Z,101224.34
2018-08-22T01:30:36.077Z,101223.20
2018-08-22T01:33:02.053Z,101219.20
2018-08-22T01:35:28.012Z,101222.53
2018-08-22T01:37:53.973Z,101227.84
2018-08-22T01:40:19.961Z,101225.67
2018-08-22T01:42:45.929Z,101221.20
2018-08-22T01:45:11.908Z,101226.68
2018-08-22T01:47:37.888Z,101222.33
2018-08-22T01:50:03.857Z,101220.17
2018-08-22T01:52:29.817Z,101219.00
2018-08-22T01:54:55.796Z,101216.66
2018-08-22T01:57:21.762Z,101223.50
2018-08-22T01:59:47.725Z,101214.69
2018-08-22T02:02:14.234Z,101216.18
2018-08-22T02:04:40.195Z,101210.03
2018-08-22T02:07:06.200Z,101213.69
2018-08-22T02:09:33.177Z,101214.84
2018-08-22T02:11:59.157Z,101205.38
2018-08-22T02:14:25.155Z,101211.34
2018-08-22T02:16:51.162Z,101213.84
2018-08-22T02:19:17.232Z,101204.88
2018-08-22T02:21:43.192Z,101204.05
2018-08-22T02:24:09.188Z,101203.54
2018-08-22T02:26:35.153Z,101202.05
2018-08-22T02:29:01.156Z,101201.39
2018-08-22T02:31:27.105Z,101199.72
2018-08-22T02:33:57.481Z,101203.70
2018-08-22T02:36:23.435Z,101200.58
2018-08-22T02:38:49.445Z,101202.23
2018-08-22T02:41:15.416Z,101200.70
2018-08-22T02:43:41.395Z,101198.23
2018-08-22T02:46:07.335Z,101200.38
2018-08-22T02:48:33.291Z,101195.89
2018-08-22T02:50:59.258Z,101199.25
2018-08-22T02:53:25.240Z,101202.03
2018-08-22T02:55:51.225Z,101200.73
2018-08-22T02:58:17.203Z,101201.07
2018-08-22T03:00:43.256Z,101195.75
2018-08-22T03:03:09.252Z,101200.72
2018-08-22T03:05:35.208Z,101199.07
2018-08-22T03:08:05.971Z,101200.21
2018-08-22T03:10:31.925Z,101188.59
2018-08-22T03:12:57.902Z,101195.41
2018-08-22T03:15:23.886Z,101190.06
2018-08-22T03:17:49.849Z,101198.74
2018-08-22T03:20:15.821Z,101199.41
2018-08-22T03:22:42.628Z,101197.92
2018-08-22T03:25:08.584Z,101189.44
2018-08-22T03:27:34.575Z,101191.39
2018-08-22T03:30:00.562Z,101186.77
2018-08-22T03:32:26.533Z,101189.91
2018-08-22T03:34:52.541Z,101188.76
2018-08-22T03:37:18.538Z,101186.92
2018-08-22T03:39:44.504Z,101184.77
2018-08-22T03:42:10.477Z,101186.59
2018-08-22T03:44:36.443Z,101182.10
2018-08-22T03:47:03.608Z,101180.77
2018-08-22T03:49:29.611Z,101177.78
2018-08-22T03:51:55.609Z,101177.78
2018-08-22T03:54:21.607Z,101188.76
2018-08-22T03:56:47.601Z,101182.43
2018-08-22T03:59:13.595Z,101190.61
2018-08-22T04:01:39.631Z,101189.24
2018-08-22T04:04:05.592Z,101189.91
2018-08-22T04:06:31.560Z,101195.57
2018-08-22T04:08:57.526Z,101188.09
2018-08-22T04:11:23.524Z,101189.75
2018-08-22T04:13:49.512Z,101192.25
2018-08-22T04:16:15.473Z,101189.75
2018-08-22T04:18:41.502Z,101190.06
2018-08-22T04:21:07.487Z,101190.09
2018-08-22T04:23:33.496Z,101188.27
2018-08-22T04:25:59.478Z,101193.23
2018-08-22T04:28:25.435Z,101196.41
2018-08-22T04:30:51.414Z,101192.07
2018-08-22T04:33:17.479Z,101190.08
2018-08-22T04:35:43.444Z,101189.91
2018-08-22T04:38:09.418Z,101191.58
2018-08-22T04:40:35.372Z,101187.59
2018-08-22T04:43:01.378Z,101190.76
2018-08-22T04:45:27.321Z,101191.06
2018-08-22T04:47:53.392Z,101195.22
2018-08-22T04:50:19.389Z,101191.77
2018-08-22T04:52:45.401Z,101194.73
2018-08-22T04:55:11.398Z,101197.55
2018-08-22T04:57:37.373Z,101192.07
2018-08-22T05:00:03.363Z,101186.91
2018-08-22T05:02:29.332Z,101187.92
2018-08-22T05:04:55.293Z,101190.07
2018-08-22T05:07:21.254Z,101185.77
2018-08-22T05:09:47.211Z,101185.75
2018-08-22T05:12:13.204Z,101190.25
2018-08-22T05:14:39.184Z,101190.41
2018-08-22T05:17:05.135Z,101197.08
2018-08-22T05:19:31.110Z,101197.08
2018-08-22T05:21:57.085Z,101191.73
2018-08-22T05:24:23.071Z,101194.23
2018-08-22T05:26:49.074Z,101194.40
2018-08-22T05:29:15.141Z,101195.40
2018-08-22T05:31:41.120Z,101191.77
2018-08-22T05:34:07.110Z,101192.23
2018-08-22T05:36:33.099Z,101191.77
2018-08-22T05:38:59.073Z,101186.75
2018-08-22T05:41:25.092Z,101193.41
2018-08-22T05:43:51.123Z,101187.75
2018-08-22T05:46:17.101Z,101189.92
2018-08-22T05:48:43.128Z,101189.08
2018-08-22T05:51:09.096Z,101194.58
2018-08-22T05:53:35.083Z,101187.60
2018-08-22T05:56:01.030Z,101185.77
2018-08-22T05:58:26.997Z,101185.77
2018-08-22T06:00:53.011Z,101189.77
2018-08-22T06:03:19.025Z,101187.27
2018-08-22T06:05:44.990Z,101184.75
2018-08-22T06:08:10.949Z,101185.45
2018-08-22T06:10:36.930Z,101187.10
2018-08-22T06:13:02.882Z,101185.61
2018-08-22T06:15:28.841Z,101193.73
2018-08-22T06:17:55.850Z,101191.41
2018-08-22T06:20:21.851Z,101184.59
2018-08-22T06:22:47.820Z,101189.41
2018-08-22T06:25:13.826Z,101181.44
2018-08-22T06:27:39.827Z,101187.42
2018-08-22T06:30:05.808Z,101188.27
2018-08-22T06:32:31.796Z,101188.25
2018-08-22T06:34:57.775Z,101189.10
2018-08-22T06:37:23.770Z,101183.61
2018-08-22T06:39:50.305Z,101184.11
2018-08-22T06:42:16.297Z,101188.92
2018-08-22T06:44:42.245Z,101189.25
2018-08-22T06:47:08.223Z,101185.77
2018-08-22T06:49:34.238Z,101190.26
2018-08-22T06:52:00.225Z,101191.41
2018-08-22T06:54:26.231Z,101192.73
2018-08-22T06:56:52.180Z,101196.73
2018-08-22T06:59:18.172Z,101197.58
2018-08-22T07:01:44.150Z,101198.05
2018-08-22T07:04:10.148Z,101192.09
2018-08-22T07:06:36.125Z,101192.56
2018-08-22T07:09:02.334Z,101194.06
2018-08-22T07:11:28.300Z,101193.23
2018-08-22T07:13:54.370Z,101194.25
2018-08-22T07:16:20.292Z,101193.73
2018-08-22T07:18:48.328Z,101200.05
2018-08-22T07:21:15.173Z,101197.55
2018-08-22T07:23:41.673Z,101195.75
2018-08-22T07:26:07.677Z,101197.08
2018-08-22T07:28:33.647Z,101198.41
2018-08-22T07:30:59.682Z,101201.89
2018-08-22T07:33:29.061Z,101205.88
2018-08-22T07:35:55.115Z,101204.55
2018-08-22T07:38:21.088Z,101201.73
2018-08-22T07:40:49.085Z,101196.88
2018-08-22T07:43:15.150Z,101196.73
2018-08-22T07:45:41.132Z,101199.37
2018-08-22T07:48:07.157Z,101196.41
2018-08-22T07:50:33.142Z,101202.21
2018-08-22T07:53:00.227Z,101198.06
2018-08-22T07:55:30.620Z,101198.06
2018-08-22T07:57:56.922Z,101192.74
2018-08-22T08:00:27.733Z,101197.24
2018-08-22T08:02:53.767Z,101196.72
2018-08-22T08:05:19.791Z,101194.42
2018-08-22T08:07:45.755Z,101196.23
2018-08-22T08:10:11.734Z,101196.25
2018-08-22T08:12:37.719Z,101192.77
2018-08-22T08:15:03.726Z,101193.27
2018-08-22T08:17:29.743Z,101196.08
2018-08-22T08:19:55.721Z,101192.44
2018-08-22T08:22:21.708Z,101194.44
2018-08-22T08:24:47.689Z,101197.09
2018-08-22T08:27:13.665Z,101195.38
2018-08-22T08:29:39.653Z,101195.38
2018-08-22T08:32:05.742Z,101190.45
2018-08-22T08:34:31.712Z,101193.11
2018-08-22T08:36:57.725Z,101186.27
2018-08-22T08:39:23.771Z,101188.43
2018-08-22T08:41:49.823Z,101184.62
2018-08-22T08:44:15.801Z,101187.05
2018-08-22T08:46:41.799Z,101190.59
2018-08-22T08:49:07.780Z,101182.11
2018-08-22T08:51:33.781Z,101183.22
2018-08-22T08:53:59.842Z,101177.42
2018-08-22T08:56:25.825Z,101184.61
2018-08-22T08:58:51.863Z,101184.58
2018-08-22T09:01:17.863Z,101181.78
2018-08-22T09:03:43.869Z,101176.11
2018-08-22T09:06:09.850Z,101175.14
2018-08-22T09:08:35.849Z,101179.13
2018-08-22T09:11:01.837Z,101174.97
2018-08-22T09:18:30.774Z,101167.81
2018-08-22T09:20:56.749Z,101170.48
2018-08-22T09:23:22.721Z,101167.31
2018-08-22T09:25:48.704Z,101167.15
2018-08-22T09:28:14.734Z,101160.16
2018-08-22T09:30:40.726Z,101156.98
2018-08-22T09:33:06.713Z,101157.97
2018-08-22T09:35:32.808Z,101151.16
2018-08-22T09:37:58.730Z,101152.81
2018-08-22T09:40:29.393Z,101151.98
2018-08-22T09:42:55.364Z,101148.19
2018-08-22T09:45:23.394Z,101148.69
2018-08-22T09:47:49.374Z,101146.19
2018-08-22T09:50:15.338Z,101143.37
2018-08-22T09:55:14.061Z,101141.53
2018-08-22T10:00:11.487Z,101137.55
2018-08-22T10:02:37.455Z,101143.69
2018-08-22T10:05:03.420Z,101141.53
2018-08-22T10:07:31.421Z,101133.70
2018-08-22T10:09:57.381Z,101133.70
2018-08-22T10:12:23.332Z,101135.55
2018-08-22T10:14:49.300Z,101133.70
2018-08-22T10:17:15.269Z,101136.02
2018-08-22T10:19:41.296Z,101131.87
2018-08-22T10:22:07.234Z,101129.56
2018-08-22T10:24:33.366Z,101127.72
2018-08-22T10:26:59.487Z,101131.20
2018-08-22T10:29:25.521Z,101128.86
2018-08-22T10:31:51.531Z,101117.39
2018-08-22T10:34:17.493Z,101114.73
2018-08-22T10:36:43.490Z,101114.38
2018-08-22T10:39:09.488Z,101113.24
2018-08-22T10:41:35.475Z,101117.39
2018-08-22T10:44:01.465Z,101109.61
2018-08-22T10:46:27.428Z,101106.25
2018-08-22T10:48:53.367Z,101105.58
2018-08-22T10:53:53.497Z,101092.98
2018-08-22T10:56:19.452Z,101092.78
2018-08-22T10:58:45.448Z,101093.44
2018-08-22T11:03:45.639Z,101090.08
2018-08-22T11:06:11.595Z,101080.59
2018-08-22T11:08:37.553Z,101081.47
2018-08-22T11:11:03.572Z,101086.27
2018-08-22T11:13:29.561Z,101082.60
2018-08-22T11:15:55.721Z,101086.78
2018-08-22T11:18:21.624Z,101083.63
2018-08-22T11:20:47.638Z,101084.64
2018-08-22T11:23:13.615Z,101077.98
2018-08-22T11:25:39.589Z,101079.62
2018-08-22T11:28:05.568Z,101072.16
2018-08-22T11:30:31.515Z,101073.95
2018-08-22T11:32:57.508Z,101071.65
2018-08-22T11:35:23.462Z,101081.98
2018-08-22T11:37:49.452Z,101078.97
2018-08-22T11:40:15.414Z,101076.97
2018-08-22T11:42:41.381Z,101074.63
2018-08-22T11:45:07.346Z,101075.13
2018-08-22T11:47:33.328Z,101068.98
2018-08-22T11:49:59.316Z,101074.30
2018-08-22T11:52:25.316Z,101073.14
2018-08-22T11:54:51.403Z,101072.46
2018-08-22T11:57:17.368Z,101067.97
2018-08-22T11:59:43.367Z,101070.32
2018-08-22T12:02:09.332Z,101064.84
2018-08-22T12:04:35.344Z,101067.66
2018-08-22T12:07:01.282Z,101067.66
2018-08-22T12:09:27.265Z,101070.31
2018-08-22T12:11:53.223Z,101065.31
2018-08-22T12:14:19.193Z,101063.50
2018-08-22T12:16:45.160Z,101061.98
2018-08-22T12:19:11.113Z,101056.45
2018-08-22T12:21:37.197Z,101056.19
2018-08-22T12:24:03.168Z,101052.28
2018-08-22T12:26:29.142Z,101055.17
2018-08-22T12:28:55.123Z,101043.14
2018-08-22T12:31:21.102Z,101036.16
2018-08-22T12:33:47.071Z,101043.86
2018-08-22T12:36:13.044Z,101041.05
2018-08-22T12:38:39.035Z,101040.91
2018-08-22T12:41:04.994Z,101038.17
2018-08-22T12:43:30.985Z,101031.73
2018-08-22T12:45:56.960Z,101044.17
2018-08-22T12:48:22.926Z,101034.03
2018-08-22T12:50:48.905Z,101034.70
2018-08-22T12:53:14.889Z,101030.56
2018-08-22T12:55:40.893Z,101030.09
2018-08-22T12:58:06.853Z,101032.72
2018-08-22T13:00:32.831Z,101030.05
2018-08-22T13:02:58.800Z,101027.73
2018-08-22T13:05:24.787Z,101026.91
2018-08-22T13:07:50.747Z,101023.55
2018-08-22T13:10:16.721Z,101020.89
2018-08-22T13:12:42.709Z,101011.20
2018-08-22T13:21:52.708Z,101013.61
2018-08-22T13:24:18.747Z,101012.28
2018-08-22T13:26:44.736Z,101011.58
2018-08-22T13:29:10.708Z,101001.29
2018-08-22T13:31:36.729Z,101002.62
2018-08-22T13:34:02.688Z,100999.28
2018-08-22T13:36:28.672Z,100996.83
2018-08-22T13:38:54.727Z,101003.28
2018-08-22T13:41:20.751Z,100991.81
2018-08-22T13:43:46.727Z,100994.62
2018-08-22T13:46:12.740Z,100992.41
2018-08-22T13:48:38.728Z,100986.27
2018-08-22T13:51:04.707Z,100987.97
2018-08-22T13:53:30.742Z,100979.69
2018-08-22T13:55:56.775Z,100985.31
2018-08-22T13:58:22.736Z,100983.27
2018-08-22T14:00:48.763Z,100977.98
2018-08-22T14:03:14.739Z,100985.61
2018-08-22T14:05:40.711Z,100983.01
2018-08-22T14:08:06.698Z,100985.15
2018-08-22T14:10:32.656Z,100989.14
2018-08-22T14:12:58.620Z,100986.48
2018-08-22T14:15:24.585Z,100985.46
2018-08-22T14:17:50.560Z,100976.80
2018-08-22T14:20:16.560Z,100988.27
2018-08-22T14:22:42.510Z,100975.28
2018-08-22T14:25:08.482Z,100971.14
2018-08-22T14:27:34.428Z,100977.46
2018-08-22T14:30:00.432Z,100981.30
2018-08-22T14:32:26.401Z,100978.81
2018-08-22T14:34:52.400Z,100975.94
2018-08-22T14:37:18.370Z,100970.81
2018-08-22T14:39:44.527Z,100970.15
2018-08-22T14:42:10.499Z,100977.94
2018-08-22T14:44:36.498Z,100977.33
2018-08-22T14:47:02.506Z,100971.80
2018-08-22T14:49:28.503Z,100972.66
2018-08-22T14:51:54.585Z,100969.95
2018-08-22T14:54:20.552Z,100971.44
2018-08-22T14:56:46.622Z,100974.80
2018-08-22T14:59:12.623Z,100977.16
2018-08-22T15:01:38.597Z,100968.84
2018-08-22T15:04:04.548Z,100970.51
2018-08-22T15:06:30.530Z,100964.32
2018-08-22T15:08:56.563Z,100959.66
2018-08-22T15:11:22.583Z,100970.15
2018-08-22T15:13:48.648Z,100969.95
2018-08-22T15:16:14.632Z,100967.79
2018-08-22T15:18:40.597Z,100967.80
2018-08-22T15:21:06.609Z,100966.61
2018-08-22T15:23:32.568Z,100969.73
2018-08-22T15:25:58.554Z,100963.93
2018-08-22T15:28:24.529Z,100959.31
2018-08-22T15:30:50.522Z,100958.78
2018-08-22T15:33:16.568Z,100959.06
2018-08-22T15:35:42.532Z,100961.88
2018-08-22T15:38:08.510Z,100953.83
2018-08-22T15:40:34.485Z,100957.01
2018-08-22T15:43:00.451Z,100955.31
2018-08-22T15:45:26.497Z,100955.83
2018-08-22T15:47:52.461Z,100949.98
2018-08-22T15:50:18.455Z,100947.97
2018-08-22T15:52:44.434Z,100945.48
2018-08-22T15:55:10.405Z,100943.83
2018-08-22T15:57:36.383Z,100943.83
2018-08-22T16:00:02.384Z,100937.88
2018-08-22T16:02:28.351Z,100938.22
2018-08-22T16:04:54.326Z,100934.38
2018-08-22T16:07:20.489Z,100930.53
2018-08-22T16:09:46.467Z,100932.70
2018-08-22T16:12:12.496Z,100934.03
2018-08-22T16:14:38.606Z,100932.22
2018-08-22T16:17:04.730Z,100932.08
2018-08-22T16:19:30.685Z,100930.59
2018-08-22T16:21:56.832Z,100932.23
2018-08-22T16:24:22.825Z,100932.70
2018-08-22T16:26:48.922Z,100930.02
2018-08-22T16:29:14.889Z,100939.76
2018-08-22T16:31:41.622Z,100934.69
2018-08-22T16:34:07.608Z,100936.00
2018-08-22T16:36:33.850Z,100934.69
2018-08-22T16:41:34.130Z,100932.16
